Time;durP1;ratioP1;P1;durP2;ratioP2;P2;SDS_P1;SDS_P2;PMS_P1;PMS_P2;Temp;Humidity;BMP_temperature;BMP_pressure;BME280_temperature;BME280_humidity;BME280_pressure;Samples;Min_cycle;Max_cycle;Signal;HPM_P1;HPM_P2
2024/01/08 00:01:39;;;;;;;16.58;10.20;;;3.00;72.00;;;-2.48;100.00;95323.50;4961369;28;20030;-54
2024/01/08 00:04:09;;;;;;;16.63;9.35;;;3.00;72.00;;;-2.49;100.00;95321.91;4965900;28;20708;-56
2024/01/08 00:06:34;;;;;;;15.43;9.82;;;3.00;72.10;;;-2.49;100.00;95322.69;4970352;28;20037;-56
2024/01/08 00:09:00;;;;;;;16.90;10.38;;;3.00;72.10;;;-2.50;100.00;95315.09;4963724;28;20366;-55
2024/01/08 00:11:26;;;;;;;21.27;11.07;;;3.00;72.10;;;-2.51;100.00;95329.91;4964870;28;20109;-54
2024/01/08 00:13:52;;;;;;;15.18;9.70;;;3.00;72.20;;;-2.56;100.00;95312.22;4958979;28;20018;-53
2024/01/08 00:16:20;;;;;;;16.00;10.77;;;2.90;72.10;;;-2.53;100.00;95320.69;4970421;28;20076;-51
2024/01/08 00:18:46;;;;;;;14.57;9.68;;;2.90;72.00;;;-2.53;100.00;95324.09;4961759;28;20035;-49
2024/01/08 00:21:12;;;;;;;16.35;9.30;;;2.90;72.00;;;-2.54;100.00;95322.44;4968482;28;20377;-51
2024/01/08 00:23:38;;;;;;;16.40;10.52;;;2.90;72.00;;;-2.49;100.00;95321.91;4966698;28;20153;-54
2024/01/08 00:26:04;;;;;;;14.95;9.90;;;2.90;72.00;;;-2.57;100.00;95318.44;4967507;28;20038;-49
2024/01/08 00:28:30;;;;;;;14.07;8.95;;;2.90;71.90;;;-2.61;100.00;95325.00;4965915;28;20029;-51
2024/01/08 00:30:56;;;;;;;14.45;9.70;;;2.90;71.90;;;-2.58;100.00;95322.03;4970396;28;20038;-54
2024/01/08 00:33:22;;;;;;;12.32;7.75;;;2.90;71.80;;;-2.66;100.00;95324.00;4964196;28;20042;-50
2024/01/08 00:35:48;;;;;;;12.32;8.15;;;2.80;71.70;;;-2.72;100.00;95315.09;4964365;28;20022;-51
2024/01/08 00:38:14;;;;;;;13.65;9.27;;;2.80;71.70;;;-2.74;100.00;95331.94;4967171;28;20064;-51
2024/01/08 00:40:39;;;;;;;14.60;8.63;;;2.80;71.60;;;-2.80;100.00;95316.03;4968469;28;20042;-51
2024/01/08 00:43:05;;;;;;;14.65;9.38;;;2.80;71.60;;;-2.80;100.00;95313.44;4970861;28;20041;-50
2024/01/08 00:45:32;;;;;;;12.95;8.15;;;2.70;71.60;;;-2.78;100.00;95323.69;4966456;28;20022;-54
2024/01/08 00:47:58;;;;;;;12.75;8.60;;;2.70;71.60;;;-2.80;100.00;95323.06;4961988;28;20026;-56
2024/01/08 00:50:26;;;;;;;13.40;8.40;;;2.70;71.60;;;-2.87;100.00;95320.38;4962112;28;20041;-52
2024/01/08 00:52:52;;;;;;;12.00;8.70;;;2.70;72.40;;;-2.88;100.00;95318.78;4954185;28;20019;-53
2024/01/08 00:55:18;;;;;;;13.20;8.45;;;2.60;71.60;;;-2.87;100.00;95330.81;4969348;28;20027;-53
2024/01/08 00:57:44;;;;;;;14.65;9.07;;;2.70;71.60;;;-2.84;100.00;95324.44;4965831;28;20034;-50
2024/01/08 01:00:10;;;;;;;12.98;8.95;;;2.60;71.60;;;-2.91;100.00;95323.56;4962989;28;20026;-51
2024/01/08 01:02:36;;;;;;;13.73;9.32;;;2.60;71.60;;;-2.94;100.00;95319.53;4967774;28;20060;-50
2024/01/08 01:05:02;;;;;;;11.60;7.85;;;2.60;71.60;;;-2.96;100.00;95329.34;4965439;28;20111;-49
2024/01/08 01:07:29;;;;;;;13.95;8.63;;;2.60;71.50;;;-2.95;100.00;95322.31;4962675;28;20501;-54
2024/01/08 01:09:56;;;;;;;12.05;7.97;;;2.50;71.40;;;-2.93;100.00;95343.78;4960263;28;20034;-49
2024/01/08 01:12:22;;;;;;;13.32;8.60;;;2.50;71.40;;;-2.95;100.00;95336.16;4966575;28;20030;-52
2024/01/08 01:14:47;;;;;;;12.88;8.55;;;2.50;71.40;;;-2.97;100.00;95332.94;4968282;28;20114;-51
2024/01/08 01:17:13;;;;;;;13.57;8.68;;;2.50;71.40;;;-2.99;100.00;95340.13;4968182;28;20113;-53
2024/01/08 01:19:39;;;;;;;13.10;8.98;;;2.50;71.40;;;-3.02;100.00;95349.13;4966721;28;20032;-50
2024/01/08 01:22:06;;;;;;;11.75;8.07;;;2.50;71.40;;;-3.05;100.00;95349.50;4965128;28;20022;-51
2024/01/08 01:24:32;;;;;;;13.30;8.18;;;2.50;71.40;;;-3.02;100.00;95346.50;4960148;28;20092;-52
2024/01/08 01:26:58;;;;;;;13.02;8.68;;;2.50;71.30;;;-3.03;100.00;95357.13;4965235;28;20147;-51
2024/01/08 01:29:23;;;;;;;15.30;8.60;;;2.50;71.30;;;-3.04;100.00;95356.34;4970906;28;20105;-49
2024/01/08 01:31:49;;;;;;;13.77;8.50;;;2.50;71.30;;;-3.02;100.00;95350.94;4966032;28;20031;-51
2024/01/08 01:34:18;;;;;;;14.75;8.25;;;2.40;72.00;;;-3.09;100.00;95361.28;4970145;28;20077;-54
2024/01/08 01:36:45;;;;;;;13.10;8.55;;;2.40;71.20;;;-3.06;100.00;95347.09;4963804;28;20038;-53
2024/01/08 01:39:11;;;;;;;13.63;8.43;;;2.40;71.20;;;-3.08;100.00;95352.47;4962394;28;20022;-49
2024/01/08 01:41:37;;;;;;;13.05;9.07;;;2.40;71.20;;;-3.09;100.00;95358.69;4968626;28;20471;-53
2024/01/08 01:44:03;;;;;;;16.02;9.25;;;2.40;71.10;;;-3.10;100.00;95353.66;4960866;28;20030;-54
2024/01/08 01:46:41;;;;;;;13.77;8.50;;;2.40;71.00;;;-3.11;100.00;95350.22;4964389;28;20080;-51
2024/01/08 01:49:12;;;;;;;11.85;8.60;;;2.40;71.00;;;-3.13;100.00;95361.84;4957184;28;20030;-50
2024/01/08 01:51:43;;;;;;;11.17;7.60;;;2.40;71.00;;;-3.15;100.00;95363.81;4962775;28;20034;-52
2024/01/08 01:54:16;;;;;;;13.15;8.45;;;2.40;71.00;;;-3.20;100.00;95358.34;4968739;28;20014;-49
2024/01/08 01:56:49;;;;;;;10.07;7.05;;;2.30;70.90;;;-3.26;100.00;95367.69;4960031;28;20034;-52
2024/01/08 01:59:18;;;;;;;12.20;7.47;;;2.30;70.90;;;-3.19;100.00;95368.59;4966862;28;20014;-52
2024/01/08 02:01:45;;;;;;;13.32;9.15;;;2.30;70.90;;;-3.21;100.00;95369.78;4958182;28;20022;-52
2024/01/08 02:04:14;;;;;;;12.85;8.02;;;2.30;70.90;;;-3.28;100.00;95367.09;4976289;28;20121;-49
2024/01/08 02:06:43;;;;;;;16.15;9.77;;;2.30;71.00;;;-3.31;100.00;95360.44;4964355;28;20040;-49
2024/01/08 02:09:10;;;;;;;11.25;8.23;;;2.30;71.00;;;-3.28;100.00;95360.09;4960285;28;20018;-50
2024/01/08 02:11:36;;;;;;;11.95;8.30;;;2.20;70.90;;;-3.32;100.00;95364.06;4960453;28;20064;-52
2024/01/08 02:14:02;;;;;;;13.68;8.93;;;2.20;70.90;;;-3.29;100.00;95368.06;4978051;28;20081;-50
2024/01/08 02:16:28;;;;;;;16.45;8.35;;;2.20;70.90;;;-3.34;100.00;95366.03;4960923;28;20033;-49
2024/01/08 02:18:54;;;;;;;12.95;8.40;;;2.20;71.00;;;-3.34;100.00;95379.06;4958025;28;20026;-50
2024/01/08 02:21:19;;;;;;;13.73;8.70;;;2.20;70.90;;;-3.32;100.00;95371.88;4965875;28;20080;-49
2024/01/08 02:23:45;;;;;;;14.40;9.48;;;2.20;71.00;;;-3.28;100.00;95375.72;4957909;28;20050;-56
2024/01/08 02:26:12;;;;;;;13.30;8.90;;;2.20;71.00;;;-3.31;100.00;95373.47;4964590;28;20765;-51
2024/01/08 02:28:38;;;;;;;11.07;7.95;;;2.20;71.00;;;-3.36;100.00;95372.41;4963100;28;20030;-51
2024/01/08 02:31:04;;;;;;;13.88;9.48;;;2.20;71.00;;;-3.34;100.00;95373.03;4957249;28;20034;-51
2024/01/08 02:33:30;;;;;;;14.00;9.38;;;2.20;70.90;;;-3.35;100.00;95371.44;4961991;28;20033;-50
2024/01/08 02:35:58;;;;;;;12.15;8.80;;;2.20;70.80;;;-3.39;100.00;95363.16;4956847;28;20026;-51
2024/01/08 02:38:24;;;;;;;11.52;8.27;;;2.10;70.80;;;-3.46;100.00;95369.28;4960282;28;20029;-49
2024/01/08 02:40:50;;;;;;;12.00;7.93;;;2.10;70.70;;;-3.52;100.00;95368.22;4980166;23;20061;-56
2024/01/08 02:43:16;;;;;;;12.40;8.65;;;2.10;70.60;;;-3.51;100.00;95356.78;4980713;28;20040;-54
2024/01/08 02:45:42;;;;;;;11.65;7.93;;;2.10;70.60;;;-3.59;100.00;95370.75;4992954;28;20122;-54
2024/01/08 02:48:09;;;;;;;11.68;7.65;;;2.00;70.50;;;-3.57;100.00;95383.59;4990740;28;20053;-56
2024/01/08 02:50:35;;;;;;;11.80;7.45;;;2.00;70.40;;;-3.63;100.00;95381.72;4990346;28;20506;-53
2024/01/08 02:53:01;;;;;;;11.55;7.45;;;2.00;70.40;;;-3.60;100.00;95384.75;4992246;28;20029;-55
2024/01/08 02:55:27;;;;;;;11.13;7.55;;;2.00;70.50;;;-3.61;100.00;95380.50;4991745;28;20487;-53
2024/01/08 02:57:53;;;;;;;13.00;8.43;;;2.00;70.50;;;-3.63;100.00;95386.91;4990270;28;20032;-55
2024/01/08 03:00:20;;;;;;;10.73;7.50;;;1.90;70.30;;;-3.62;100.00;95380.72;4992533;28;20141;-53
2024/01/08 03:02:46;;;;;;;11.13;7.93;;;1.90;70.40;;;-3.70;100.00;95379.00;4991885;28;20014;-49
2024/01/08 03:05:12;;;;;;;11.27;7.30;;;1.90;70.40;;;-3.70;100.00;95392.00;4991915;28;20021;-52
2024/01/08 03:07:38;;;;;;;12.38;8.02;;;1.90;71.20;;;-3.75;100.00;95391.75;4990824;28;20033;-51
2024/01/08 03:10:04;;;;;;;9.82;7.18;;;1.90;70.40;;;-3.81;100.00;95387.28;4991477;28;20515;-55
2024/01/08 03:12:30;;;;;;;10.13;6.82;;;1.80;70.30;;;-3.84;100.00;95391.03;4991896;28;20025;-53
2024/01/08 03:14:55;;;;;;;10.48;7.57;;;1.80;70.30;;;-3.91;100.00;95397.97;4991364;28;20439;-54
2024/01/08 03:17:21;;;;;;;11.93;7.65;;;1.80;70.20;;;-3.90;100.00;95403.97;4991913;28;20044;-55
2024/01/08 03:19:47;;;;;;;10.77;7.03;;;1.70;70.10;;;-3.91;100.00;95399.75;4992295;28;20022;-54
2024/01/08 03:22:13;;;;;;;12.18;7.50;;;1.70;70.20;;;-3.93;100.00;95396.53;4991592;28;20025;-54
2024/01/08 03:24:39;;;;;;;10.93;7.10;;;1.70;70.20;;;-3.94;100.00;95393.13;4989352;28;20022;-54
2024/01/08 03:27:05;;;;;;;10.48;7.05;;;1.60;70.10;;;-3.96;100.00;95405.47;4991210;28;20103;-53
2024/01/08 03:29:30;;;;;;;11.57;7.60;;;1.70;70.20;;;-3.99;100.00;95391.03;4990894;28;20060;-54
2024/01/08 03:31:56;;;;;;;11.50;7.75;;;1.60;70.20;;;-3.96;100.00;95405.47;4989932;28;20120;-54
2024/01/08 03:34:22;;;;;;;10.52;6.80;;;1.60;70.20;;;-3.92;100.00;95404.13;4990576;28;20025;-55
2024/01/08 03:36:50;;;;;;;10.45;7.43;;;1.60;70.30;;;-3.96;100.00;95408.88;4991960;28;20040;-51
2024/01/08 03:39:17;;;;;;;9.93;7.15;;;1.60;70.30;;;-4.02;100.00;95398.38;4990678;28;20034;-53
2024/01/08 03:41:44;;;;;;;10.43;7.00;;;1.60;70.20;;;-4.10;100.00;95403.69;4989628;28;20522;-56
2024/01/08 03:44:11;;;;;;;10.77;7.18;;;1.60;70.20;;;-4.09;100.00;95410.50;4991648;28;20026;-56
2024/01/08 03:46:38;;;;;;;12.50;7.32;;;1.60;70.20;;;-3.99;100.00;95405.84;4990701;28;20068;-50
2024/01/08 03:49:07;;;;;;;11.55;7.18;;;1.50;70.20;;;-4.10;100.00;95409.69;4988246;28;20017;-57
2024/01/08 03:51:34;;;;;;;12.23;8.65;;;1.50;70.20;;;-4.09;100.00;95411.31;4990819;28;20037;-57
2024/01/08 03:54:01;;;;;;;10.73;7.53;;;1.50;70.20;;;-4.19;100.00;95414.16;4989701;28;20114;-56
2024/01/08 03:56:27;;;;;;;11.13;7.05;;;1.50;70.20;;;-4.21;100.00;95404.91;4990338;28;20091;-51
2024/01/08 03:58:52;;;;;;;13.85;7.40;;;1.50;70.10;;;-4.21;100.00;95403.13;4995632;28;20028;-55
2024/01/08 04:01:18;;;;;;;13.13;7.72;;;1.50;70.20;;;-4.17;100.00;95416.56;4990215;28;20567;-55
2024/01/08 04:03:44;;;;;;;10.07;7.13;;;1.50;70.10;;;-4.30;100.00;95411.19;4993710;28;20022;-56
2024/01/08 04:06:10;;;;;;;13.07;8.20;;;1.40;70.10;;;-4.29;100.00;95405.81;4992641;28;20029;-54
2024/01/08 04:08:36;;;;;;;9.98;6.53;;;1.40;70.00;;;-4.37;100.00;95415.47;4993424;28;20021;-56
2024/01/08 04:11:03;;;;;;;11.98;7.95;;;1.40;69.90;;;-4.34;100.00;95423.72;4992751;28;20026;-57
2024/01/08 04:13:31;;;;;;;11.30;7.63;;;1.40;69.90;;;-4.33;100.00;95432.34;4992780;28;20040;-51
2024/01/08 04:15:57;;;;;;;11.27;7.10;;;1.30;69.80;;;-4.39;100.00;95418.22;4999267;28;20032;-53
2024/01/08 04:18:23;;;;;;;12.18;7.25;;;1.30;69.90;;;-4.42;100.00;95426.38;4994887;28;20034;-53
2024/01/08 04:20:48;;;;;;;9.38;6.20;;;1.30;69.90;;;-4.47;100.00;95421.72;4993323;28;20033;-56
2024/01/08 04:23:14;;;;;;;11.73;7.55;;;1.30;70.00;;;-4.50;100.00;95422.06;4994521;28;20022;-54
2024/01/08 04:25:40;;;;;;;10.88;6.95;;;1.20;69.80;;;-4.46;100.00;95415.53;4992216;28;20060;-57
2024/01/08 04:28:06;;;;;;;11.23;6.65;;;1.20;69.90;;;-4.41;100.00;95428.03;4994517;28;20025;-51
2024/01/08 04:30:32;;;;;;;11.88;7.72;;;1.20;69.90;;;-4.47;100.00;95421.72;4993526;28;20157;-53
2024/01/08 04:32:57;;;;;;;12.82;8.10;;;1.20;69.90;;;-4.39;100.00;95431.22;4995866;28;20022;-53
2024/01/08 04:35:23;;;;;;;12.30;8.15;;;1.20;70.00;;;-4.48;100.00;95424.47;4995859;28;20030;-55
2024/01/08 04:37:49;;;;;;;12.38;6.78;;;1.20;69.90;;;-4.53;100.00;95432.81;4995118;28;20109;-54
2024/01/08 04:40:15;;;;;;;11.20;6.82;;;1.20;69.90;;;-4.57;100.00;95421.16;4997388;28;20044;-55
2024/01/08 04:42:41;;;;;;;11.93;6.80;;;1.20;69.80;;;-4.48;100.00;95429.69;4994590;28;20010;-53
2024/01/08 04:45:08;;;;;;;12.68;7.03;;;1.10;69.80;;;-4.51;100.00;95430.03;4995403;28;20071;-50
2024/01/08 04:47:34;;;;;;;11.38;7.55;;;1.10;69.90;;;-4.54;100.00;95431.22;4994563;28;20026;-54
2024/01/08 04:50:00;;;;;;;18.40;7.45;;;1.10;69.90;;;-4.47;100.00;95439.94;4993788;28;20042;-52
2024/01/08 04:52:26;;;;;;;9.35;6.18;;;1.10;69.90;;;-4.51;100.00;95432.63;4995188;28;20079;-57
2024/01/08 04:54:52;;;;;;;12.30;6.32;;;1.10;69.80;;;-4.56;100.00;95434.97;4994284;28;20648;-56
2024/01/08 04:57:18;;;;;;;11.27;7.38;;;1.10;69.80;;;-4.51;100.00;95433.47;4994876;28;20071;-53
2024/01/08 04:59:44;;;;;;;12.40;6.72;;;1.10;69.70;;;-4.49;100.00;95428.06;4994958;28;20094;-53
2024/01/08 05:02:10;;;;;;;9.70;6.15;;;1.10;69.70;;;-4.55;100.00;95439.19;4993492;28;20033;-53
2024/01/08 05:04:37;;;;;;;9.73;6.68;;;1.10;69.60;;;-4.63;100.00;95445.25;4994539;28;20033;-57
2024/01/08 05:07:03;;;;;;;9.07;6.30;;;1.10;69.70;;;-4.64;100.00;95441.00;4995318;28;20052;-50
2024/01/08 05:09:32;;;;;;;9.82;6.50;;;1.10;69.60;;;-4.57;100.00;95451.56;4994757;28;20120;-56
2024/01/08 05:11:58;;;;;;;8.50;5.75;;;1.00;69.50;;;-4.60;100.00;95444.91;4993526;28;20036;-51
2024/01/08 05:14:24;;;;;;;8.13;5.60;;;1.10;69.50;;;-4.64;100.00;95448.81;4994467;28;20041;-54
2024/01/08 05:16:49;;;;;;;9.57;6.60;;;1.00;69.50;;;-4.63;100.00;95441.84;4994066;28;20437;-55
2024/01/08 05:19:16;;;;;;;7.68;5.32;;;1.00;69.50;;;-4.66;100.00;95448.19;4992988;28;20055;-50
2024/01/08 05:21:42;;;;;;;8.55;6.28;;;1.00;69.40;;;-4.62;100.00;95451.25;4993144;28;20037;-56
2024/01/08 05:24:08;;;;;;;9.98;6.75;;;1.00;69.50;;;-4.58;100.00;95455.91;4992733;28;20627;-52
2024/01/08 05:26:34;;;;;;;9.85;6.38;;;1.00;69.40;;;-4.55;100.00;95455.56;4993543;28;20029;-54
2024/01/08 05:29:00;;;;;;;8.88;6.15;;;1.00;69.40;;;-4.60;100.00;95460.50;4993181;28;20021;-52
2024/01/08 05:31:26;;;;;;;9.40;6.43;;;1.00;69.40;;;-4.58;100.00;95461.13;4992262;28;20033;-55
2024/01/08 05:33:52;;;;;;;10.52;6.82;;;1.00;69.40;;;-4.54;100.00;95456.41;4993657;28;20464;-54
2024/01/08 05:36:18;;;;;;;9.68;6.07;;;1.00;69.40;;;-4.58;100.00;95461.13;4992073;28;20416;-54
2024/01/08 05:38:44;;;;;;;8.32;6.10;;;1.00;69.30;;;-4.62;100.00;95467.66;4993559;28;20022;-54
2024/01/08 05:41:09;;;;;;;8.23;5.72;;;1.00;69.20;;;-4.67;100.00;95465.59;4993395;28;20034;-57
2024/01/08 05:43:38;;;;;;;9.07;5.90;;;1.00;69.10;;;-4.75;100.00;95452.63;4994596;28;20059;-52
2024/01/08 05:46:07;;;;;;;9.25;6.53;;;1.00;69.00;;;-4.64;100.00;95464.41;4992950;28;20062;-56
2024/01/08 05:48:40;;;;;;;8.82;5.78;;;0.90;68.90;;;-4.67;100.00;95469.97;4992364;28;20492;-55
2024/01/08 05:51:07;;;;;;;10.60;7.15;;;0.90;69.00;;;-4.68;100.00;95470.94;4992083;28;20742;-51
2024/01/08 05:53:34;;;;;;;9.48;6.28;;;1.00;69.10;;;-4.67;100.00;95477.75;4993210;28;20032;-54
2024/01/08 05:56:00;;;;;;;11.18;6.22;;;0.90;69.00;;;-4.74;100.00;95480.25;4992311;28;20041;-52
2024/01/08 05:58:26;;;;;;;10.23;6.65;;;0.90;69.70;;;-4.74;100.00;95480.25;4992928;28;20025;-50
2024/01/08 06:00:57;;;;;;;11.73;6.47;;;0.90;68.90;;;-4.75;100.00;95476.03;4992023;28;20040;-54
2024/01/08 06:03:23;;;;;;;10.05;6.80;;;0.90;68.90;;;-4.76;100.00;95471.03;4992763;28;20028;-52
2024/01/08 06:05:50;;;;;;;9.52;6.55;;;0.90;68.80;;;-4.77;100.00;95482.38;4992213;28;20034;-50
2024/01/08 06:08:16;;;;;;;10.07;6.90;;;0.90;68.80;;;-4.79;100.00;95474.75;4990441;28;20032;-51
2024/01/08 06:10:43;;;;;;;9.80;6.20;;;0.80;68.70;;;-4.80;100.00;95477.53;5004486;28;20598;-55
2024/01/08 06:13:11;;;;;;;8.80;5.88;;;0.90;68.70;;;-4.84;100.00;95484.06;4992427;28;20029;-49
2024/01/08 06:15:37;;;;;;;12.23;7.00;;;0.80;68.70;;;-4.77;100.00;95484.97;4990821;28;20120;-56
2024/01/08 06:18:04;;;;;;;11.55;6.78;;;0.80;68.80;;;-4.72;100.00;95482.69;4989689;28;20018;-55
2024/01/08 06:20:31;;;;;;;10.45;6.90;;;0.80;68.80;;;-4.73;100.00;95494.03;4990741;28;20029;-56
2024/01/08 06:22:57;;;;;;;8.65;5.65;;;0.80;68.90;;;-4.82;100.00;95501.09;4991014;28;20492;-56
2024/01/08 06:25:22;;;;;;;9.90;6.47;;;0.80;68.90;;;-4.88;100.00;95499.19;4989175;28;20026;-55
2024/01/08 06:27:48;;;;;;;10.25;7.20;;;0.80;68.80;;;-4.79;100.00;95505.16;4989355;28;20026;-54
2024/01/08 06:30:17;;;;;;;9.85;6.55;;;0.80;68.80;;;-4.84;100.00;95505.66;4990895;28;20033;-54
2024/01/08 06:32:43;;;;;;;10.85;6.30;;;0.80;68.90;;;-4.86;100.00;95505.00;4990650;28;20026;-55
2024/01/08 06:35:08;;;;;;;10.68;6.82;;;0.80;68.80;;;-4.83;100.00;95501.25;4990405;28;20022;-54
2024/01/08 06:37:34;;;;;;;9.82;6.05;;;0.80;68.80;;;-4.89;100.00;95495.78;4989601;28;20038;-55
2024/01/08 06:40:00;;;;;;;9.40;6.18;;;0.80;68.80;;;-4.94;100.00;95500.66;4991188;28;20092;-57
2024/01/08 06:42:26;;;;;;;9.82;6.55;;;0.80;68.80;;;-4.98;100.00;95501.16;4988182;28;20100;-57
2024/01/08 06:44:52;;;;;;;8.45;6.22;;;0.80;68.80;;;-4.91;100.00;95496.91;4986373;28;20032;-54
2024/01/08 06:47:18;;;;;;;10.48;6.18;;;0.80;68.80;;;-5.04;100.00;95500.06;4988817;28;20025;-54
2024/01/08 06:49:44;;;;;;;9.32;6.03;;;0.70;68.60;;;-5.00;100.00;95498.75;4989007;28;20041;-54
2024/01/08 06:52:10;;;;;;;8.68;5.85;;;0.70;68.60;;;-4.98;100.00;95495.97;4990550;28;20116;-52
2024/01/08 06:54:38;;;;;;;9.25;6.22;;;0.70;68.60;;;-5.01;100.00;95498.94;4989583;28;20100;-54
2024/01/08 06:57:04;;;;;;;7.05;4.70;;;0.70;68.60;;;-5.08;100.00;95501.38;4990399;28;20030;-52
2024/01/08 06:59:30;;;;;;;8.05;5.82;;;0.70;68.50;;;-5.08;100.00;95505.75;4990385;28;20097;-55
2024/01/08 07:01:56;;;;;;;8.50;5.65;;;0.70;68.50;;;-5.03;100.00;95512.06;4989065;28;20187;-55
2024/01/08 07:04:22;;;;;;;10.77;6.75;;;0.60;68.50;;;-5.03;100.00;95509.47;4990180;28;20619;-54
2024/01/08 07:06:48;;;;;;;8.40;6.18;;;0.70;68.60;;;-5.10;100.00;95518.94;4988082;28;20068;-54
2024/01/08 07:09:14;;;;;;;9.07;6.20;;;0.60;68.40;;;-5.03;100.00;95517.28;4990133;28;20090;-56
2024/01/08 07:11:40;;;;;;;9.40;6.03;;;0.60;68.40;;;-5.12;100.00;95523.47;4989543;28;20496;-54
2024/01/08 07:14:06;;;;;;;8.32;5.55;;;0.60;68.50;;;-5.12;100.00;95510.50;4989034;28;20480;-58
2024/01/08 07:16:32;;;;;;;8.27;6.05;;;0.60;68.40;;;-5.13;100.00;95514.88;4989951;28;20075;-58
2024/01/08 07:18:57;;;;;;;10.80;6.85;;;0.60;68.40;;;-5.07;100.00;95515.19;4989301;28;20097;-56
2024/01/08 07:21:23;;;;;;;10.20;6.03;;;0.60;68.40;;;-5.11;100.00;95525.09;4988277;28;20033;-54
2024/01/08 07:23:50;;;;;;;9.52;5.95;;;0.60;68.40;;;-5.18;100.00;95524.16;4989324;28;20030;-54
2024/01/08 07:26:16;;;;;;;9.18;6.57;;;0.60;68.30;;;-5.07;100.00;95515.19;4990878;28;20025;-55
2024/01/08 07:28:45;;;;;;;9.07;6.28;;;0.60;68.40;;;-5.00;100.00;95518.72;4989860;28;20037;-56
2024/01/08 07:31:12;;;;;;;10.73;6.88;;;0.60;69.10;;;-5.10;100.00;95531.13;4980721;28;20034;-56
2024/01/08 07:33:38;;;;;;;9.00;5.45;;;0.60;68.30;;;-5.06;100.00;95520.19;4981998;28;20024;-55
2024/01/08 07:36:05;;;;;;;8.73;6.30;;;0.60;69.00;;;-5.15;100.00;95527.22;4982421;28;20049;-53
2024/01/08 07:38:32;;;;;;;8.98;5.93;;;0.70;68.20;;;-5.24;100.00;95530.00;4993537;28;20021;-54
2024/01/08 07:41:00;;;;;;;8.40;5.95;;;0.70;68.10;;;-5.13;100.00;95527.06;4991360;28;20041;-56
2024/01/08 07:43:27;;;;;;;8.68;5.70;;;0.60;68.00;;;-5.17;100.00;95536.16;4992443;28;20029;-55
2024/01/08 07:45:53;;;;;;;9.20;5.90;;;0.70;68.10;;;-5.16;100.00;95535.19;4992331;28;20025;-58
2024/01/08 07:48:20;;;;;;;8.68;5.90;;;0.70;68.00;;;-5.21;100.00;95530.47;4990865;28;20025;-58
2024/01/08 07:50:47;;;;;;;9.05;6.47;;;0.70;68.00;;;-5.08;100.00;95548.13;4992609;28;20137;-57
2024/01/08 07:53:14;;;;;;;10.75;6.20;;;0.60;67.90;;;-5.05;100.00;95547.78;4990842;28;20026;-57
2024/01/08 07:55:40;;;;;;;9.80;6.45;;;0.70;68.00;;;-5.04;100.00;95551.22;4992658;28;20017;-58
2024/01/08 07:58:06;;;;;;;10.57;6.03;;;0.70;68.00;;;-5.04;100.00;95541.63;4992877;28;20034;-55
2024/01/08 08:00:32;;;;;;;10.00;5.78;;;0.70;68.00;;;-5.04;100.00;95549.44;4992060;28;20080;-58
2024/01/08 08:02:58;;;;;;;10.15;6.35;;;0.70;67.90;;;-5.08;100.00;95547.31;4993176;28;20026;-57
2024/01/08 08:05:24;;;;;;;7.82;5.60;;;0.70;67.80;;;-5.10;100.00;95552.69;4993141;28;20029;-58
2024/01/08 08:07:50;;;;;;;11.68;6.45;;;0.80;67.80;;;-5.03;100.00;95555.44;4989397;28;20076;-58
2024/01/08 08:10:16;;;;;;;10.13;6.40;;;0.80;67.80;;;-5.00;100.00;95563.69;4992352;28;20029;-54
2024/01/08 08:12:42;;;;;;;10.82;6.40;;;0.80;67.70;;;-4.89;100.00;95554.72;4992078;28;20049;-57
2024/01/08 08:15:10;;;;;;;10.65;6.78;;;0.90;67.80;;;-4.93;100.00;95558.63;4993058;28;20061;-58
2024/01/08 08:17:40;;;;;;;9.93;6.43;;;0.90;67.70;;;-4.84;100.00;95552.41;4992859;28;20071;-55
2024/01/08 08:20:09;;;;;;;10.70;6.18;;;1.00;67.60;;;-4.90;100.00;95553.09;4991601;28;20116;-58
2024/01/08 08:22:36;;;;;;;8.35;5.63;;;1.00;67.40;;;-5.01;100.00;95558.69;4992922;28;20025;-56
2024/01/08 08:25:03;;;;;;;11.32;5.97;;;1.00;67.30;;;-4.93;100.00;95556.84;4991704;28;20084;-57
2024/01/08 08:27:29;;;;;;;8.73;5.85;;;1.00;67.30;;;-4.85;100.00;95560.41;4991763;28;20045;-55
2024/01/08 08:29:56;;;;;;;9.77;6.47;;;1.10;67.20;;;-4.77;100.00;95557.75;4990012;28;20056;-57
2024/01/08 08:32:22;;;;;;;10.52;6.18;;;1.10;67.20;;;-4.81;100.00;95566.88;4992675;28;20029;-59
2024/01/08 08:34:48;;;;;;;10.48;5.90;;;1.10;67.20;;;-4.77;100.00;95555.94;4992601;28;20025;-54
2024/01/08 08:37:14;;;;;;;10.30;6.47;;;1.20;67.20;;;-4.75;100.00;95558.41;4991464;28;20053;-54
2024/01/08 08:39:41;;;;;;;9.45;5.90;;;1.20;67.10;;;-4.82;100.00;95563.47;4992286;28;20060;-58
2024/01/08 08:42:08;;;;;;;9.02;5.85;;;1.20;67.00;;;-4.79;100.00;95568.31;4992611;28;20127;-55
2024/01/08 08:44:35;;;;;;;9.75;6.68;;;1.20;67.00;;;-4.82;100.00;95567.84;4991151;28;20034;-57
2024/01/08 08:47:05;;;;;;;8.38;5.63;;;1.20;66.90;;;-4.92;100.00;95571.47;4990071;28;20029;-57
2024/01/08 08:49:30;;;;;;;9.93;6.20;;;1.20;66.90;;;-4.82;100.00;95570.47;4989283;28;20021;-59
2024/01/08 08:51:57;;;;;;;9.32;5.80;;;1.20;66.70;;;-4.79;100.00;95573.53;4991943;28;20392;-57
2024/01/08 08:54:24;;;;;;;8.85;5.82;;;1.30;66.90;;;-4.72;100.00;95566.66;4990840;28;20030;-56
2024/01/08 08:56:49;;;;;;;9.10;5.57;;;1.30;66.80;;;-4.84;100.00;95567.22;4992167;28;20029;-57
2024/01/08 08:59:15;;;;;;;11.10;6.50;;;1.30;67.50;;;-4.88;100.00;95572.75;4992098;28;20032;-56
2024/01/08 09:01:41;;;;;;;8.63;5.80;;;1.30;66.50;;;-4.82;100.00;95568.66;4991014;28;20030;-59
2024/01/08 09:04:07;;;;;;;8.38;5.53;;;1.30;66.40;;;-4.72;100.00;95564.06;4990654;28;20021;-60
2024/01/08 09:06:34;;;;;;;8.73;5.05;;;1.30;66.40;;;-4.94;100.00;95575.22;4991263;28;20088;-57
2024/01/08 09:09:01;;;;;;;9.35;6.70;;;1.40;66.40;;;-4.72;100.00;95574.47;4991723;28;20476;-54
2024/01/08 09:11:27;;;;;;;7.78;5.63;;;1.40;66.40;;;-4.65;100.00;95578.00;4991318;28;20484;-53
2024/01/08 09:13:54;;;;;;;8.95;5.57;;;1.50;66.60;;;-4.74;100.00;95583.41;4991027;28;20469;-53
2024/01/08 09:16:20;;;;;;;8.23;6.15;;;1.50;66.30;;;-4.71;100.00;95588.25;4991676;28;20572;-55
2024/01/08 09:18:46;;;;;;;9.13;6.32;;;1.50;66.20;;;-4.60;100.00;95587.09;4990122;28;20388;-57
2024/01/08 09:21:14;;;;;;;7.22;5.00;;;1.50;66.20;;;-4.63;100.00;95601.22;4990796;28;20026;-55
2024/01/08 09:23:43;;;;;;;9.10;5.53;;;1.60;66.20;;;-4.60;100.00;95587.91;4991441;28;20480;-52
2024/01/08 09:26:10;;;;;;;9.45;5.90;;;1.60;66.20;;;-4.58;100.00;95595.50;4990671;28;20033;-51
2024/01/08 09:28:36;;;;;;;8.10;5.80;;;1.70;66.10;;;-4.52;100.00;95592.22;4991287;28;20018;-51
2024/01/08 09:31:04;;;;;;;8.50;6.13;;;1.70;65.80;;;-4.44;100.00;95582.59;4989904;28;20036;-51
2024/01/08 09:33:31;;;;;;;9.30;5.47;;;1.80;66.00;;;-4.52;100.00;95595.63;4991248;28;20026;-54
2024/01/08 09:35:57;;;;;;;10.02;6.15;;;1.90;65.80;;;-4.50;100.00;95588.47;4989479;28;20103;-56
2024/01/08 09:38:23;;;;;;;9.52;6.45;;;1.90;65.60;;;-4.56;100.00;95590.97;4991153;28;20081;-52
2024/01/08 09:40:50;;;;;;;7.93;5.50;;;2.00;65.50;;;-4.66;100.00;95591.16;4990677;28;20142;-53
2024/01/08 09:43:16;;;;;;;11.35;6.28;;;2.00;65.20;;;-4.62;100.00;95600.25;4990826;28;20400;-58
2024/01/08 09:46:06;;;;;;;7.13;5.45;;;2.00;64.90;;;-4.76;100.00;95593.97;4991338;28;20033;-54
2024/01/08 09:48:35;;;;;;;10.30;5.68;;;2.10;64.80;;;-4.73;100.00;95595.41;5003643;28;20045;-52
2024/01/08 09:51:03;;;;;;;9.15;5.93;;;2.20;64.60;;;-4.62;100.00;95592.44;4990470;28;20112;-53
2024/01/08 09:53:32;;;;;;;8.35;5.72;;;2.40;65.20;;;-4.59;100.00;95594.69;4990638;28;20047;-53
2024/01/08 09:56:00;;;;;;;8.25;5.63;;;2.50;64.30;;;-4.53;100.00;95596.63;4988893;28;20018;-52
2024/01/08 09:58:26;;;;;;;8.55;4.80;;;2.60;64.80;;;-4.55;100.00;95595.97;4989603;28;20484;-50
2024/01/08 10:00:53;;;;;;;8.18;6.05;;;2.80;63.80;;;-4.34;100.00;95604.97;4989147;28;20033;-56
2024/01/08 10:03:20;;;;;;;8.38;5.88;;;2.90;63.40;;;-4.47;100.00;95601.16;4990827;28;20036;-53
2024/01/08 10:05:46;;;;;;;10.43;6.25;;;3.00;63.20;;;-4.37;100.00;95598.31;4990982;28;20460;-57
2024/01/08 10:08:12;;;;;;;9.40;5.82;;;3.00;62.90;;;-4.40;100.00;95601.28;4990750;28;20049;-51
2024/01/08 10:10:39;;;;;;;7.45;5.80;;;3.10;63.00;;;-4.42;100.00;95598.00;4989259;28;20121;-53
2024/01/08 10:13:09;;;;;;;7.85;5.30;;;3.10;62.80;;;-4.48;100.00;95604.72;4989802;28;20060;-54